sensor_id;sensor_type;location;lat;lon;timestamp;pressure;altitude;pressure_sealevel;temperature;humidity
46007;BME280;31738;50.188;8.524;2022-11-09T00:02:33;98319.94;;;12.62;91.09
46007;BME280;31738;50.188;8.524;2022-11-09T00:05:06;98313.19;;;12.64;91.15
46007;BME280;31738;50.188;8.524;2022-11-09T00:07:59;98310.28;;;12.61;91.35
46007;BME280;31738;50.188;8.524;2022-11-09T00:10:27;98313.97;;;12.65;91.28
46007;BME280;31738;50.188;8.524;2022-11-09T00:13:00;98322.56;;;12.67;91.33
46007;BME280;31738;50.188;8.524;2022-11-09T00:16:26;98335.50;;;12.65;91.72
46007;BME280;31738;50.188;8.524;2022-11-09T00:19:03;98331.72;;;12.66;91.63
46007;BME280;31738;50.188;8.524;2022-11-09T00:21:38;98340.78;;;12.70;91.47
46007;BME280;31738;50.188;8.524;2022-11-09T00:24:47;98333.75;;;12.74;91.83
46007;BME280;31738;50.188;8.524;2022-11-09T00:27:52;98330.75;;;12.75;92.14
46007;BME280;31738;50.188;8.524;2022-11-09T00:30:33;98328.06;;;12.75;92.16
46007;BME280;31738;50.188;8.524;2022-11-09T00:33:06;98323.97;;;12.78;92.76
46007;BME280;31738;50.188;8.524;2022-11-09T00:35:55;98325.56;;;12.79;93.04
46007;BME280;31738;50.188;8.524;2022-11-09T00:38:23;98313.19;;;12.78;93.27
46007;BME280;31738;50.188;8.524;2022-11-09T00:40:49;98311.03;;;12.80;93.33
46007;BME280;31738;50.188;8.524;2022-11-09T00:43:25;98307.22;;;12.81;93.76
46007;BME280;31738;50.188;8.524;2022-11-09T00:45:51;98301.84;;;12.81;93.52
46007;BME280;31738;50.188;8.524;2022-11-09T00:48:29;98293.47;;;12.82;93.74
46007;BME280;31738;50.188;8.524;2022-11-09T00:51:32;98299.75;;;12.78;94.16
46007;BME280;31738;50.188;8.524;2022-11-09T00:54:31;98307.00;;;12.77;94.48
46007;BME280;31738;50.188;8.524;2022-11-09T00:57:28;98322.97;;;12.74;94.41
46007;BME280;31738;50.188;8.524;2022-11-09T01:00:14;98328.84;;;12.76;94.65
46007;BME280;31738;50.188;8.524;2022-11-09T01:02:55;98328.34;;;12.74;95.16
46007;BME280;31738;50.188;8.524;2022-11-09T01:05:57;98337.03;;;12.71;95.33
46007;BME280;31738;50.188;8.524;2022-11-09T01:08:37;98328.66;;;12.72;95.81
46007;BME280;31738;50.188;8.524;2022-11-09T01:11:17;98326.75;;;12.73;96.03
46007;BME280;31738;50.188;8.524;2022-11-09T01:14:09;98302.81;;;12.71;96.64
46007;BME280;31738;50.188;8.524;2022-11-09T01:16:35;98298.25;;;12.72;96.52
46007;BME280;31738;50.188;8.524;2022-11-09T01:19:22;98291.97;;;12.76;96.79
46007;BME280;31738;50.188;8.524;2022-11-09T01:22:28;98293.06;;;12.75;97.42
46007;BME280;31738;50.188;8.524;2022-11-09T01:25:19;98300.84;;;12.77;96.91
46007;BME280;31738;50.188;8.524;2022-11-09T01:28:22;98294.66;;;12.76;97.47
46007;BME280;31738;50.188;8.524;2022-11-09T01:30:50;98298.63;;;12.79;97.55
46007;BME280;31738;50.188;8.524;2022-11-09T01:38:34;98310.59;;;12.73;97.52
46007;BME280;31738;50.188;8.524;2022-11-09T01:53:16;98319.34;;;12.65;98.68
46007;BME280;31738;50.188;8.524;2022-11-09T01:56:24;98315.75;;;12.69;98.89
46007;BME280;31738;50.188;8.524;2022-11-09T01:59:32;98309.00;;;12.72;98.71
46007;BME280;31738;50.188;8.524;2022-11-09T02:02:05;98314.31;;;12.77;99.04
46007;BME280;31738;50.188;8.524;2022-11-09T02:04:59;98306.41;;;12.80;99.15
46007;BME280;31738;50.188;8.524;2022-11-09T02:08:18;98298.34;;;12.80;99.68
46007;BME280;31738;50.188;8.524;2022-11-09T02:11:13;98290.47;;;12.84;99.80
46007;BME280;31738;50.188;8.524;2022-11-09T02:13:54;98288.28;;;12.86;99.53
46007;BME280;31738;50.188;8.524;2022-11-09T02:16:36;98287.19;;;12.87;99.81
46007;BME280;31738;50.188;8.524;2022-11-09T02:19:04;98279.63;;;12.75;99.84
46007;BME280;31738;50.188;8.524;2022-11-09T02:21:35;98286.28;;;12.78;99.65
46007;BME280;31738;50.188;8.524;2022-11-09T02:24:17;98287.28;;;12.82;99.65
46007;BME280;31738;50.188;8.524;2022-11-09T02:30:52;98273.03;;;12.81;100.00
46007;BME280;31738;50.188;8.524;2022-11-09T02:39:12;98253.78;;;12.74;100.00
46007;BME280;31738;50.188;8.524;2022-11-09T02:43:18;98242.84;;;12.71;100.00
46007;BME280;31738;50.188;8.524;2022-11-09T02:46:33;98241.75;;;12.72;100.00
46007;BME280;31738;50.188;8.524;2022-11-09T02:49:16;98235.75;;;12.75;100.00
46007;BME280;31738;50.188;8.524;2022-11-09T02:51:42;98228.66;;;12.79;100.00
46007;BME280;31738;50.188;8.524;2022-11-09T02:54:28;98224.28;;;12.83;100.00
46007;BME280;31738;50.188;8.524;2022-11-09T02:57:02;98222.59;;;12.87;100.00
46007;BME280;31738;50.188;8.524;2022-11-09T02:59:38;98222.00;;;12.90;100.00
46007;BME280;31738;50.188;8.524;2022-11-09T03:02:11;98225.50;;;12.90;100.00
46007;BME280;31738;50.188;8.524;2022-11-09T03:04:38;98221.09;;;12.94;100.00
46007;BME280;31738;50.188;8.524;2022-11-09T03:07:04;98213.22;;;12.98;100.00
46007;BME280;31738;50.188;8.524;2022-11-09T03:09:30;98202.97;;;13.00;100.00
46007;BME280;31738;50.188;8.524;2022-11-09T03:11:55;98207.25;;;13.01;100.00
46007;BME280;31738;50.188;8.524;2022-11-09T03:14:21;98201.56;;;13.02;100.00
46007;BME280;31738;50.188;8.524;2022-11-09T03:16:51;98201.78;;;13.06;100.00
46007;BME280;31738;50.188;8.524;2022-11-09T03:19:17;98197.16;;;13.06;100.00
46007;BME280;31738;50.188;8.524;2022-11-09T03:21:45;98200.34;;;13.08;100.00
46007;BME280;31738;50.188;8.524;2022-11-09T03:24:10;98213.50;;;13.10;100.00
46007;BME280;31738;50.188;8.524;2022-11-09T03:26:37;98222.09;;;13.12;100.00
46007;BME280;31738;50.188;8.524;2022-11-09T03:29:03;98234.97;;;13.15;100.00
46007;BME280;31738;50.188;8.524;2022-11-09T03:31:29;98238.72;;;13.14;100.00
46007;BME280;31738;50.188;8.524;2022-11-09T03:33:56;98238.13;;;13.17;100.00
46007;BME280;31738;50.188;8.524;2022-11-09T03:36:22;98245.91;;;13.18;100.00
46007;BME280;31738;50.188;8.524;2022-11-09T03:38:48;98251.00;;;13.20;100.00
46007;BME280;31738;50.188;8.524;2022-11-09T03:41:14;98255.00;;;13.22;100.00
46007;BME280;31738;50.188;8.524;2022-11-09T03:43:40;98273.53;;;13.24;100.00
46007;BME280;31738;50.188;8.524;2022-11-09T03:46:05;98274.34;;;13.24;100.00
46007;BME280;31738;50.188;8.524;2022-11-09T03:48:31;98283.72;;;13.27;100.00
46007;BME280;31738;50.188;8.524;2022-11-09T03:50:56;98281.03;;;13.27;100.00
46007;BME280;31738;50.188;8.524;2022-11-09T03:53:22;98276.13;;;13.29;100.00
46007;BME280;31738;50.188;8.524;2022-11-09T03:55:47;98280.41;;;13.30;100.00
46007;BME280;31738;50.188;8.524;2022-11-09T03:58:13;98281.22;;;13.30;100.00
46007;BME280;31738;50.188;8.524;2022-11-09T04:00:39;98269.84;;;13.33;100.00
46007;BME280;31738;50.188;8.524;2022-11-09T04:03:05;98276.50;;;13.36;100.00
46007;BME280;31738;50.188;8.524;2022-11-09T04:05:30;98275.72;;;13.35;100.00
46007;BME280;31738;50.188;8.524;2022-11-09T04:07:56;98280.50;;;13.38;100.00
46007;BME280;31738;50.188;8.524;2022-11-09T04:10:23;98282.88;;;13.40;100.00
46007;BME280;31738;50.188;8.524;2022-11-09T04:12:49;98288.78;;;13.42;100.00
46007;BME280;31738;50.188;8.524;2022-11-09T04:15:15;98278.50;;;13.44;100.00
46007;BME280;31738;50.188;8.524;2022-11-09T04:17:41;98280.09;;;13.45;100.00
46007;BME280;31738;50.188;8.524;2022-11-09T04:20:09;98283.28;;;13.47;100.00
46007;BME280;31738;50.188;8.524;2022-11-09T04:22:35;98284.88;;;13.48;100.00
46007;BME280;31738;50.188;8.524;2022-11-09T04:25:00;98280.28;;;13.48;100.00
46007;BME280;31738;50.188;8.524;2022-11-09T04:27:26;98281.06;;;13.49;100.00
46007;BME280;31738;50.188;8.524;2022-11-09T04:29:51;98281.56;;;13.51;100.00
46007;BME280;31738;50.188;8.524;2022-11-09T04:32:17;98289.66;;;13.51;100.00
46007;BME280;31738;50.188;8.524;2022-11-09T04:34:43;98290.16;;;13.53;100.00
46007;BME280;31738;50.188;8.524;2022-11-09T04:37:09;98292.84;;;13.53;100.00
46007;BME280;31738;50.188;8.524;2022-11-09T04:39:34;98288.25;;;13.53;100.00
46007;BME280;31738;50.188;8.524;2022-11-09T04:42:00;98284.47;;;13.54;100.00
46007;BME280;31738;50.188;8.524;2022-11-09T04:44:26;98283.03;;;13.57;100.00
46007;BME280;31738;50.188;8.524;2022-11-09T04:46:53;98276.88;;;13.56;100.00
46007;BME280;31738;50.188;8.524;2022-11-09T04:49:19;98271.50;;;13.56;100.00
46007;BME280;31738;50.188;8.524;2022-11-09T04:51:44;98271.19;;;13.58;100.00
46007;BME280;31738;50.188;8.524;2022-11-09T04:54:10;98268.50;;;13.58;100.00
46007;BME280;31738;50.188;8.524;2022-11-09T04:56:35;98280.06;;;13.58;100.00
46007;BME280;31738;50.188;8.524;2022-11-09T04:59:01;98269.28;;;13.58;100.00
46007;BME280;31738;50.188;8.524;2022-11-09T05:01:26;98279.28;;;13.58;100.00
46007;BME280;31738;50.188;8.524;2022-11-09T05:03:52;98268.50;;;13.58;100.00
46007;BME280;31738;50.188;8.524;2022-11-09T05:06:18;98267.88;;;13.61;100.00
46007;BME280;31738;50.188;8.524;2022-11-09T05:09:00;98247.72;;;13.58;100.00
46007;BME280;31738;50.188;8.524;2022-11-09T05:11:27;98253.91;;;13.59;100.00
46007;BME280;31738;50.188;8.524;2022-11-09T05:13:52;98247.72;;;13.58;100.00
46007;BME280;31738;50.188;8.524;2022-11-09T05:16:18;98240.75;;;13.57;100.00
46007;BME280;31738;50.188;8.524;2022-11-09T05:18:44;98245.00;;;13.58;100.00
46007;BME280;31738;50.188;8.524;2022-11-09T05:21:09;98242.31;;;13.58;100.00
46007;BME280;31738;50.188;8.524;2022-11-09T05:23:35;98252.31;;;13.58;100.00
46007;BME280;31738;50.188;8.524;2022-11-09T05:26:20;98238.34;;;13.56;100.00
46007;BME280;31738;50.188;8.524;2022-11-09T05:28:45;98245.00;;;13.58;100.00
46007;BME280;31738;50.188;8.524;2022-11-09T05:31:11;98243.13;;;13.59;100.00
46007;BME280;31738;50.188;8.524;2022-11-09T05:33:36;98242.00;;;13.60;100.00
46007;BME280;31738;50.188;8.524;2022-11-09T05:36:02;98245.53;;;13.60;100.00
46007;BME280;31738;50.188;8.524;2022-11-09T05:38:29;98244.72;;;13.60;100.00
46007;BME280;31738;50.188;8.524;2022-11-09T05:40:55;98244.72;;;13.60;100.00
46007;BME280;31738;50.188;8.524;2022-11-09T05:43:20;98244.72;;;13.60;100.00
46007;BME280;31738;50.188;8.524;2022-11-09T05:45:46;98246.31;;;13.61;100.00
46007;BME280;31738;50.188;8.524;2022-11-09T05:48:14;98237.13;;;13.62;100.00
46007;BME280;31738;50.188;8.524;2022-11-09T05:50:40;98242.22;;;13.63;100.00
46007;BME280;31738;50.188;8.524;2022-11-09T05:53:21;98245.53;;;13.60;100.00
46007;BME280;31738;50.188;8.524;2022-11-09T05:55:47;98227.75;;;13.59;100.00
46007;BME280;31738;50.188;8.524;2022-11-09T05:58:12;98233.16;;;13.59;100.00
46007;BME280;31738;50.188;8.524;2022-11-09T06:00:38;98233.94;;;13.60;100.00
46007;BME280;31738;50.188;8.524;2022-11-09T06:03:08;98241.72;;;13.61;100.00
46007;BME280;31738;50.188;8.524;2022-11-09T06:05:36;98238.53;;;13.59;100.00
46007;BME280;31738;50.188;8.524;2022-11-09T06:08:06;98240.44;;;13.59;100.00
46007;BME280;31738;50.188;8.524;2022-11-09T06:10:32;98243.13;;;13.59;100.00
46007;BME280;31738;50.188;8.524;2022-11-09T06:12:59;98232.34;;;13.59;100.00
46007;BME280;31738;50.188;8.524;2022-11-09T06:15:24;98245.81;;;13.59;100.00
46007;BME280;31738;50.188;8.524;2022-11-09T06:17:51;98252.31;;;13.58;100.00
46007;BME280;31738;50.188;8.524;2022-11-09T06:20:17;98259.28;;;13.59;100.00
46007;BME280;31738;50.188;8.524;2022-11-09T06:22:42;98257.72;;;13.58;100.00
46007;BME280;31738;50.188;8.524;2022-11-09T06:25:08;98263.41;;;13.56;100.00
46007;BME280;31738;50.188;8.524;2022-11-09T06:27:33;98272.28;;;13.57;100.00
46007;BME280;31738;50.188;8.524;2022-11-09T06:29:59;98277.19;;;13.55;100.00
46007;BME280;31738;50.188;8.524;2022-11-09T06:32:24;98291.13;;;13.57;100.00
46007;BME280;31738;50.188;8.524;2022-11-09T06:34:50;98290.66;;;13.55;100.00
46007;BME280;31738;50.188;8.524;2022-11-09T06:37:15;98296.81;;;13.55;100.00
46007;BME280;31738;50.188;8.524;2022-11-09T06:39:44;98297.63;;;13.56;100.00
46007;BME280;31738;50.188;8.524;2022-11-09T06:42:11;98297.63;;;13.56;100.00
46007;BME280;31738;50.188;8.524;2022-11-09T06:44:36;98293.81;;;13.57;100.00
46007;BME280;31738;50.188;8.524;2022-11-09T06:47:02;98292.25;;;13.56;100.00
46007;BME280;31738;50.188;8.524;2022-11-09T06:49:27;98292.25;;;13.56;100.00
46007;BME280;31738;50.188;8.524;2022-11-09T06:51:53;98295.25;;;13.54;100.00
46007;BME280;31738;50.188;8.524;2022-11-09T06:54:18;98292.84;;;13.53;100.00
46007;BME280;31738;50.188;8.524;2022-11-09T06:56:44;98299.81;;;13.54;100.00
46007;BME280;31738;50.188;8.524;2022-11-09T06:59:09;98296.66;;;13.52;100.00
46007;BME280;31738;50.188;8.524;2022-11-09T07:01:35;98306.63;;;13.51;100.00
46007;BME280;31738;50.188;8.524;2022-11-09T07:04:02;98308.22;;;13.52;100.00
46007;BME280;31738;50.188;8.524;2022-11-09T07:06:27;98308.22;;;13.52;100.00
46007;BME280;31738;50.188;8.524;2022-11-09T07:08:56;98310.59;;;13.54;100.00
46007;BME280;31738;50.188;8.524;2022-11-09T07:11:22;98321.38;;;13.54;100.00
46007;BME280;31738;50.188;8.524;2022-11-09T07:13:47;98320.31;;;13.55;100.00
46007;BME280;31738;50.188;8.524;2022-11-09T07:16:14;98339.94;;;13.55;100.00
46007;BME280;31738;50.188;8.524;2022-11-09T07:18:43;98332.34;;;13.57;100.00
46007;BME280;31738;50.188;8.524;2022-11-09T07:21:09;98329.97;;;13.56;100.00
46007;BME280;31738;50.188;8.524;2022-11-09T07:23:34;98331.38;;;13.53;100.00
46007;BME280;31738;50.188;8.524;2022-11-09T07:26:00;98338.66;;;13.53;100.00
46007;BME280;31738;50.188;8.524;2022-11-09T07:28:25;98340.25;;;13.54;100.00
46007;BME280;31738;50.188;8.524;2022-11-09T07:30:51;98348.31;;;13.54;100.00
46007;BME280;31738;50.188;8.524;2022-11-09T07:33:18;98347.72;;;13.57;100.00
46007;BME280;31738;50.188;8.524;2022-11-09T07:35:43;98349.63;;;13.56;100.00
46007;BME280;31738;50.188;8.524;2022-11-09T07:38:09;98334.25;;;13.57;100.00
46007;BME280;31738;50.188;8.524;2022-11-09T07:40:35;98346.63;;;13.58;100.00
46007;BME280;31738;50.188;8.524;2022-11-09T07:43:02;98346.63;;;13.58;100.00
46007;BME280;31738;50.188;8.524;2022-11-09T07:45:30;98340.44;;;13.57;100.00
46007;BME280;31738;50.188;8.524;2022-11-09T07:47:57;98343.13;;;13.57;100.00
46007;BME280;31738;50.188;8.524;2022-11-09T07:50:23;98350.41;;;13.57;100.00
46007;BME280;31738;50.188;8.524;2022-11-09T07:52:48;98352.34;;;13.56;100.00
46007;BME280;31738;50.188;8.524;2022-11-09T07:55:14;98345.03;;;13.57;100.00
46007;BME280;31738;50.188;8.524;2022-11-09T07:57:39;98360.13;;;13.58;100.00
46007;BME280;31738;50.188;8.524;2022-11-09T08:00:05;98365.00;;;13.56;100.00
46007;BME280;31738;50.188;8.524;2022-11-09T08:02:37;98367.69;;;13.56;100.00
46007;BME280;31738;50.188;8.524;2022-11-09T08:05:03;98366.88;;;13.55;100.00
46007;BME280;31738;50.188;8.524;2022-11-09T08:07:28;98367.19;;;13.54;100.00
46007;BME280;31738;50.188;8.524;2022-11-09T08:09:54;98368.00;;;13.54;100.00
46007;BME280;31738;50.188;8.524;2022-11-09T08:12:20;98370.38;;;13.56;100.00
46007;BME280;31738;50.188;8.524;2022-11-09T08:14:45;98376.88;;;13.55;100.00
46007;BME280;31738;50.188;8.524;2022-11-09T08:17:11;98363.41;;;13.55;100.00
46007;BME280;31738;50.188;8.524;2022-11-09T08:19:36;98360.72;;;13.55;100.00
46007;BME280;31738;50.188;8.524;2022-11-09T08:22:01;98361.19;;;13.57;100.00
46007;BME280;31738;50.188;8.524;2022-11-09T08:24:27;98365.50;;;13.58;100.00
46007;BME280;31738;50.188;8.524;2022-11-09T08:26:53;98362.00;;;13.57;100.00
46007;BME280;31738;50.188;8.524;2022-11-09T08:29:18;98366.28;;;13.58;100.00
46007;BME280;31738;50.188;8.524;2022-11-09T08:31:44;98370.91;;;13.58;100.00
46007;BME280;31738;50.188;8.524;2022-11-09T08:34:12;98365.19;;;13.59;100.00
46007;BME280;31738;50.188;8.524;2022-11-09T08:36:39;98370.91;;;13.58;100.00
46007;BME280;31738;50.188;8.524;2022-11-09T08:39:04;98377.06;;;13.58;100.00
46007;BME280;31738;50.188;8.524;2022-11-09T08:41:30;98377.06;;;13.58;100.00
46007;BME280;31738;50.188;8.524;2022-11-09T08:43:55;98385.66;;;13.60;100.00
46007;BME280;31738;50.188;8.524;2022-11-09T08:46:21;98384.84;;;13.60;100.00
46007;BME280;31738;50.188;8.524;2022-11-09T08:48:46;98377.56;;;13.60;100.00
46007;BME280;31738;50.188;8.524;2022-11-09T08:51:12;98382.66;;;13.62;100.00
46007;BME280;31738;50.188;8.524;2022-11-09T08:53:37;98376.16;;;13.63;100.00
46007;BME280;31738;50.188;8.524;2022-11-09T08:56:07;98375.84;;;13.64;100.00
46007;BME280;31738;50.188;8.524;2022-11-09T08:58:33;98379.34;;;13.65;100.00
46007;BME280;31738;50.188;8.524;2022-11-09T09:00:58;98374.78;;;13.65;100.00
46007;BME280;31738;50.188;8.524;2022-11-09T09:03:54;98379.88;;;13.67;100.00
46007;BME280;31738;50.188;8.524;2022-11-09T09:06:59;98371.47;;;13.68;100.00
46007;BME280;31738;50.188;8.524;2022-11-09T09:14:06;98377.34;;;13.70;100.00
46007;BME280;31738;50.188;8.524;2022-11-09T09:17:13;98366.88;;;13.69;100.00
46007;BME280;31738;50.188;8.524;2022-11-09T09:20:19;98369.75;;;13.72;100.00
46007;BME280;31738;50.188;8.524;2022-11-09T09:22:56;98366.25;;;13.72;100.00
46007;BME280;31738;50.188;8.524;2022-11-09T09:25:53;98369.47;;;13.74;100.00
46007;BME280;31738;50.188;8.524;2022-11-09T09:28:18;98375.06;;;13.77;100.00
46007;BME280;31738;50.188;8.524;2022-11-09T09:31:04;98383.34;;;13.81;100.00
46007;BME280;31738;50.188;8.524;2022-11-09T09:33:43;98386.22;;;13.85;100.00
46007;BME280;31738;50.188;8.524;2022-11-09T09:36:42;98388.44;;;13.83;100.00
46007;BME280;31738;50.188;8.524;2022-11-09T09:39:20;98389.81;;;13.80;100.00
46007;BME280;31738;50.188;8.524;2022-11-09T09:41:57;98393.00;;;13.82;100.00
46007;BME280;31738;50.188;8.524;2022-11-09T09:55:11;98390.72;;;13.75;100.00
46007;BME280;31738;50.188;8.524;2022-11-09T09:58:25;98404.00;;;13.72;100.00
46007;BME280;31738;50.188;8.524;2022-11-09T10:01:36;98406.38;;;13.73;100.00
46007;BME280;31738;50.188;8.524;2022-11-09T10:30:18;98398.16;;;13.92;100.00
46007;BME280;31738;50.188;8.524;2022-11-09T10:40:55;98399.59;;;13.90;100.00
46007;BME280;31738;50.188;8.524;2022-11-09T10:44:00;98397.69;;;13.90;100.00
46007;BME280;31738;50.188;8.524;2022-11-09T10:47:07;98389.00;;;13.93;100.00
46007;BME280;31738;50.188;8.524;2022-11-09T10:50:12;98393.19;;;13.99;100.00
46007;BME280;31738;50.188;8.524;2022-11-09T10:53:28;98382.56;;;14.03;100.00
46007;BME280;31738;50.188;8.524;2022-11-09T10:56:48;98385.97;;;14.08;100.00
46007;BME280;31738;50.188;8.524;2022-11-09T11:03:16;98382.34;;;14.13;100.00
46007;BME280;31738;50.188;8.524;2022-11-09T11:06:29;98379.25;;;14.19;100.00
46007;BME280;31738;50.188;8.524;2022-11-09T11:09:29;98381.72;;;14.29;100.00
46007;BME280;31738;50.188;8.524;2022-11-09T11:16:31;98393.06;;;14.40;100.00
46007;BME280;31738;50.188;8.524;2022-11-09T11:25:33;98394.31;;;14.56;100.00
46007;BME280;31738;50.188;8.524;2022-11-09T11:28:58;98387.91;;;14.52;100.00
46007;BME280;31738;50.188;8.524;2022-11-09T11:39:09;98386.53;;;14.54;100.00
46007;BME280;31738;50.188;8.524;2022-11-09T12:30:24;98382.44;;;14.87;100.00
46007;BME280;31738;50.188;8.524;2022-11-09T12:37:12;98381.50;;;14.92;100.00
46007;BME280;31738;50.188;8.524;2022-11-09T12:46:52;98392.31;;;14.92;100.00
46007;BME280;31738;50.188;8.524;2022-11-09T12:49:55;98394.22;;;14.91;100.00
46007;BME280;31738;50.188;8.524;2022-11-09T12:52:53;98386.56;;;14.85;100.00
46007;BME280;31738;50.188;8.524;2022-11-09T12:55:49;98393.34;;;14.82;100.00
46007;BME280;31738;50.188;8.524;2022-11-09T12:58:41;98401.44;;;14.82;100.00
46007;BME280;31738;50.188;8.524;2022-11-09T13:01:42;98401.44;;;14.82;100.00
46007;BME280;31738;50.188;8.524;2022-11-09T13:12:23;98401.41;;;14.74;100.00
46007;BME280;31738;50.188;8.524;2022-11-09T13:16:06;98406.63;;;14.70;99.69
46007;BME280;31738;50.188;8.524;2022-11-09T13:19:07;98416.34;;;14.71;99.37
46007;BME280;31738;50.188;8.524;2022-11-09T13:25:44;98422.91;;;14.79;98.78
46007;BME280;31738;50.188;8.524;2022-11-09T13:43:11;98415.22;;;14.72;98.52
46007;BME280;31738;50.188;8.524;2022-11-09T13:49:48;98427.59;;;14.73;98.37
46007;BME280;31738;50.188;8.524;2022-11-09T13:53:00;98423.94;;;14.69;98.28
46007;BME280;31738;50.188;8.524;2022-11-09T13:59:51;98432.97;;;14.65;98.15
46007;BME280;31738;50.188;8.524;2022-11-09T14:02:51;98439.16;;;14.65;97.66
46007;BME280;31738;50.188;8.524;2022-11-09T14:06:34;98438.97;;;14.62;97.74
46007;BME280;31738;50.188;8.524;2022-11-09T14:20:41;98443.00;;;14.51;97.33
46007;BME280;31738;50.188;8.524;2022-11-09T14:23:42;98443.63;;;14.48;97.38
46007;BME280;31738;50.188;8.524;2022-11-09T14:26:33;98448.41;;;14.51;97.36
46007;BME280;31738;50.188;8.524;2022-11-09T14:29:22;98454.59;;;14.51;97.25
46007;BME280;31738;50.188;8.524;2022-11-09T14:32:35;98455.69;;;14.50;97.00
46007;BME280;31738;50.188;8.524;2022-11-09T14:36:41;98458.84;;;14.44;97.34
46007;BME280;31738;50.188;8.524;2022-11-09T14:43:04;98463.41;;;14.43;97.27
46007;BME280;31738;50.188;8.524;2022-11-09T14:49:17;98466.44;;;14.42;97.40
46007;BME280;31738;50.188;8.524;2022-11-09T14:52:27;98468.31;;;14.41;97.71
46007;BME280;31738;50.188;8.524;2022-11-09T14:55:50;98466.72;;;14.40;97.75
46007;BME280;31738;50.188;8.524;2022-11-09T14:58:46;98473.84;;;14.36;97.79
46007;BME280;31738;50.188;8.524;2022-11-09T15:02:13;98481.44;;;14.34;97.98
46007;BME280;31738;50.188;8.524;2022-11-09T15:04:59;98485.25;;;14.33;97.82
46007;BME280;31738;50.188;8.524;2022-11-09T15:07:45;98485.53;;;14.32;98.00
46007;BME280;31738;50.188;8.524;2022-11-09T15:10:31;98485.81;;;14.30;97.75
46007;BME280;31738;50.188;8.524;2022-11-09T15:13:17;98482.66;;;14.28;97.82
46007;BME280;31738;50.188;8.524;2022-11-09T15:16:04;98481.84;;;14.28;97.77
46007;BME280;31738;50.188;8.524;2022-11-09T15:18:49;98477.06;;;14.25;97.95
46007;BME280;31738;50.188;8.524;2022-11-09T15:21:35;98470.84;;;14.24;97.86
46007;BME280;31738;50.188;8.524;2022-11-09T15:24:22;98473.06;;;14.22;97.93
46007;BME280;31738;50.188;8.524;2022-11-09T15:27:29;98471.25;;;14.18;97.81
46007;BME280;31738;50.188;8.524;2022-11-09T15:36:05;98466.91;;;13.95;98.37
46007;BME280;31738;50.188;8.524;2022-11-09T15:39:31;98471.47;;;13.94;98.38
46007;BME280;31738;50.188;8.524;2022-11-09T15:42:16;98477.47;;;13.91;98.54
46007;BME280;31738;50.188;8.524;2022-11-09T15:45:00;98481.28;;;13.90;98.71
46007;BME280;31738;50.188;8.524;2022-11-09T15:47:50;98485.88;;;13.90;98.60
46007;BME280;31738;50.188;8.524;2022-11-09T15:50:35;98483.47;;;13.88;98.58
46007;BME280;31738;50.188;8.524;2022-11-09T15:53:20;98479.19;;;13.87;98.65
46007;BME280;31738;50.188;8.524;2022-11-09T15:56:19;98486.78;;;13.85;98.37
46007;BME280;31738;50.188;8.524;2022-11-09T15:59:06;98485.19;;;13.84;98.66
46007;BME280;31738;50.188;8.524;2022-11-09T16:01:53;98493.28;;;13.84;98.57
46007;BME280;31738;50.188;8.524;2022-11-09T16:04:41;98485.47;;;13.83;98.39
46007;BME280;31738;50.188;8.524;2022-11-09T16:07:25;98495.47;;;13.82;98.54
46007;BME280;31738;50.188;8.524;2022-11-09T16:10:12;98493.88;;;13.81;98.45
46007;BME280;31738;50.188;8.524;2022-11-09T16:12:56;98500.34;;;13.80;98.31
46007;BME280;31738;50.188;8.524;2022-11-09T16:15:40;98502.53;;;13.78;98.30
46007;BME280;31738;50.188;8.524;2022-11-09T16:18:24;98510.13;;;13.76;98.26
46007;BME280;31738;50.188;8.524;2022-11-09T16:21:10;98515.81;;;13.74;98.37
46007;BME280;31738;50.188;8.524;2022-11-09T16:23:55;98525.28;;;13.72;98.64
46007;BME280;31738;50.188;8.524;2022-11-09T16:26:39;98530.69;;;13.72;98.26
46007;BME280;31738;50.188;8.524;2022-11-09T16:29:26;98535.00;;;13.73;98.16
46007;BME280;31738;50.188;8.524;2022-11-09T16:32:11;98544.47;;;13.70;98.08
46007;BME280;31738;50.188;8.524;2022-11-09T16:34:55;98547.44;;;13.69;98.24
46007;BME280;31738;50.188;8.524;2022-11-09T16:37:40;98554.53;;;13.65;98.20
46007;BME280;31738;50.188;8.524;2022-11-09T16:40:24;98548.66;;;13.63;98.15
46007;BME280;31738;50.188;8.524;2022-11-09T16:43:10;98558.13;;;13.60;98.29
46007;BME280;31738;50.188;8.524;2022-11-09T16:45:54;98557.31;;;13.60;98.32
46007;BME280;31738;50.188;8.524;2022-11-09T16:48:38;98565.13;;;13.61;98.16
46007;BME280;31738;50.188;8.524;2022-11-09T16:51:22;98568.09;;;13.60;98.18
46007;BME280;31738;50.188;8.524;2022-11-09T16:54:06;98576.19;;;13.60;98.35
46007;BME280;31738;50.188;8.524;2022-11-09T16:56:51;98584.88;;;13.57;98.19
46007;BME280;31738;50.188;8.524;2022-11-09T16:59:37;98581.69;;;13.55;98.36
46007;BME280;31738;50.188;8.524;2022-11-09T17:02:24;98589.78;;;13.55;98.18
46007;BME280;31738;50.188;8.524;2022-11-09T17:05:11;98590.38;;;13.52;98.13
46007;BME280;31738;50.188;8.524;2022-11-09T17:07:55;98589.84;;;13.50;98.07
46007;BME280;31738;50.188;8.524;2022-11-09T17:10:41;98591.44;;;13.51;98.06
46007;BME280;31738;50.188;8.524;2022-11-09T17:13:25;98596.31;;;13.49;98.25
46007;BME280;31738;50.188;8.524;2022-11-09T17:16:11;98594.44;;;13.49;98.16
46007;BME280;31738;50.188;8.524;2022-11-09T17:18:56;98600.94;;;13.48;98.05
46007;BME280;31738;50.188;8.524;2022-11-09T17:21:41;98605.00;;;13.46;98.41
46007;BME280;31738;50.188;8.524;2022-11-09T17:24:26;98612.00;;;13.47;98.03
46007;BME280;31738;50.188;8.524;2022-11-09T17:27:11;98615.28;;;13.44;98.25
46007;BME280;31738;50.188;8.524;2022-11-09T17:29:55;98621.75;;;13.43;97.94
46007;BME280;31738;50.188;8.524;2022-11-09T17:32:40;98635.22;;;13.43;98.51